sensor_id;sensor_type;location;lat;lon;timestamp;pressure;altitude;pressure_sealevel;temperature;humidity
50732;BME280;36700;50.488;2.544;2023-05-22T00:00:51;101353.06;;;17.55;57.53
50732;BME280;36700;50.488;2.544;2023-05-22T00:03:19;101349.34;;;17.49;57.30
50732;BME280;36700;50.488;2.544;2023-05-22T00:05:49;101351.63;;;17.53;57.27
50732;BME280;36700;50.488;2.544;2023-05-22T00:08:15;101356.22;;;17.52;58.00
50732;BME280;36700;50.488;2.544;2023-05-22T00:10:41;101356.44;;;17.50;57.67
50732;BME280;36700;50.488;2.544;2023-05-22T00:13:07;101353.97;;;17.49;57.27
50732;BME280;36700;50.488;2.544;2023-05-22T00:15:33;101358.34;;;17.50;57.71
50732;BME280;36700;50.488;2.544;2023-05-22T00:17:59;101359.41;;;17.49;57.50
50732;BME280;36700;50.488;2.544;2023-05-22T00:20:25;101360.22;;;17.49;57.49
50732;BME280;36700;50.488;2.544;2023-05-22T00:22:51;101347.94;;;17.47;57.46
50732;BME280;36700;50.488;2.544;2023-05-22T00:25:18;101353.38;;;17.47;57.56
50732;BME280;36700;50.488;2.544;2023-05-22T00:27:44;101353.63;;;17.45;57.34
50732;BME280;36700;50.488;2.544;2023-05-22T00:30:10;101354.66;;;17.44;57.42
50732;BME280;36700;50.488;2.544;2023-05-22T00:32:36;101354.66;;;17.44;57.61
50732;BME280;36700;50.488;2.544;2023-05-22T00:35:02;101354.06;;;17.42;57.33
50732;BME280;36700;50.488;2.544;2023-05-22T00:37:28;101348.84;;;17.41;57.40
50732;BME280;36700;50.488;2.544;2023-05-22T00:39:54;101340.69;;;17.41;57.51
50732;BME280;36700;50.488;2.544;2023-05-22T00:42:21;101340.69;;;17.41;57.37
50732;BME280;36700;50.488;2.544;2023-05-22T00:44:47;101344.47;;;17.40;57.61
50732;BME280;36700;50.488;2.544;2023-05-22T00:47:13;101345.31;;;17.40;57.58
50732;BME280;36700;50.488;2.544;2023-05-22T00:49:40;101349.09;;;17.39;57.53
50732;BME280;36700;50.488;2.544;2023-05-22T00:52:08;101343.91;;;17.38;57.39
50732;BME280;36700;50.488;2.544;2023-05-22T00:54:34;101339.53;;;17.36;57.67
50732;BME280;36700;50.488;2.544;2023-05-22T00:57:01;101335.13;;;17.35;57.58
50732;BME280;36700;50.488;2.544;2023-05-22T00:59:28;101339.75;;;17.35;57.55
50732;BME280;36700;50.488;2.544;2023-05-22T01:01:54;101345.19;;;17.35;57.74
50732;BME280;36700;50.488;2.544;2023-05-22T01:04:20;101344.34;;;17.34;57.78
50732;BME280;36700;50.488;2.544;2023-05-22T01:06:46;101337.25;;;17.33;57.66
50732;BME280;36700;50.488;2.544;2023-05-22T01:09:12;101342.91;;;17.32;57.70
50732;BME280;36700;50.488;2.544;2023-05-22T01:11:53;101334.75;;;17.32;57.73
50732;BME280;36700;50.488;2.544;2023-05-22T01:17:22;101343.16;;;17.30;57.61
50732;BME280;36700;50.488;2.544;2023-05-22T01:20:05;101334.41;;;17.28;57.99
50732;BME280;36700;50.488;2.544;2023-05-22T01:31:07;101336.53;;;17.26;57.81
50732;BME280;36700;50.488;2.544;2023-05-22T01:33:47;101336.75;;;17.25;57.91
50732;BME280;36700;50.488;2.544;2023-05-22T01:36:14;101339.69;;;17.23;57.83
50732;BME280;36700;50.488;2.544;2023-05-22T01:38:44;101343.25;;;17.23;57.68
50732;BME280;36700;50.488;2.544;2023-05-22T01:41:11;101338.66;;;17.24;57.72
50732;BME280;36700;50.488;2.544;2023-05-22T01:43:38;101338.03;;;17.22;57.83
50732;BME280;36700;50.488;2.544;2023-05-22T01:46:04;101337.22;;;17.21;57.81
50732;BME280;36700;50.488;2.544;2023-05-22T01:48:31;101331.19;;;17.19;57.98
50732;BME280;36700;50.488;2.544;2023-05-22T01:51:03;101333.88;;;17.19;58.07
50732;BME280;36700;50.488;2.544;2023-05-22T01:53:34;101326.00;;;17.18;57.87
50732;BME280;36700;50.488;2.544;2023-05-22T01:56:08;101331.44;;;17.18;57.78
50732;BME280;36700;50.488;2.544;2023-05-22T02:01:13;101322.88;;;17.14;58.19
50732;BME280;36700;50.488;2.544;2023-05-22T02:03:40;101323.50;;;17.16;57.86
50732;BME280;36700;50.488;2.544;2023-05-22T02:06:09;101332.47;;;17.17;57.98
50732;BME280;36700;50.488;2.544;2023-05-22T02:08:38;101328.09;;;17.16;57.76
50732;BME280;36700;50.488;2.544;2023-05-22T02:11:07;101323.94;;;17.13;58.04
50732;BME280;36700;50.488;2.544;2023-05-22T02:13:34;101322.88;;;17.14;58.24
50732;BME280;36700;50.488;2.544;2023-05-22T02:16:01;101315.44;;;17.09;58.04
50732;BME280;36700;50.488;2.544;2023-05-22T02:18:29;101314.13;;;17.12;58.06
50732;BME280;36700;50.488;2.544;2023-05-22T02:20:56;101318.97;;;17.10;58.08
50732;BME280;36700;50.488;2.544;2023-05-22T02:23:22;101312.72;;;17.09;58.10
50732;BME280;36700;50.488;2.544;2023-05-22T02:25:48;101312.72;;;17.09;58.06
50732;BME280;36700;50.488;2.544;2023-05-22T02:28:14;101312.72;;;17.09;58.15
50732;BME280;36700;50.488;2.544;2023-05-22T02:30:40;101311.53;;;17.05;58.00
50732;BME280;36700;50.488;2.544;2023-05-22T02:33:06;101317.56;;;17.07;58.26
50732;BME280;36700;50.488;2.544;2023-05-22T02:35:34;101314.00;;;17.07;58.03
50732;BME280;36700;50.488;2.544;2023-05-22T02:38:00;101305.03;;;17.06;57.93
50732;BME280;36700;50.488;2.544;2023-05-22T02:40:26;101310.47;;;17.06;58.34
50732;BME280;36700;50.488;2.544;2023-05-22T02:42:52;101312.34;;;17.06;57.96
50732;BME280;36700;50.488;2.544;2023-05-22T02:45:18;101304.19;;;17.06;58.19
50732;BME280;36700;50.488;2.544;2023-05-22T02:47:44;101297.31;;;17.03;58.42
50732;BME280;36700;50.488;2.544;2023-05-22T02:50:10;101301.94;;;17.03;58.01
50732;BME280;36700;50.488;2.544;2023-05-22T02:52:36;101299.22;;;17.03;58.41
50732;BME280;36700;50.488;2.544;2023-05-22T02:55:04;101300.03;;;17.03;58.03
50732;BME280;36700;50.488;2.544;2023-05-22T02:57:30;101295.28;;;16.99;58.39
50732;BME280;36700;50.488;2.544;2023-05-22T02:59:56;101300.22;;;17.02;58.00
50732;BME280;36700;50.488;2.544;2023-05-22T03:02:26;101298.81;;;16.99;58.35
50732;BME280;36700;50.488;2.544;2023-05-22T03:04:53;101294.22;;;17.00;58.12
50732;BME280;36700;50.488;2.544;2023-05-22T03:07:19;101296.94;;;17.00;58.28
50732;BME280;36700;50.488;2.544;2023-05-22T03:09:46;101299.06;;;16.98;58.13
50732;BME280;36700;50.488;2.544;2023-05-22T03:12:12;101303.44;;;16.99;58.45
50732;BME280;36700;50.488;2.544;2023-05-22T03:14:38;101300.72;;;16.99;58.06
50732;BME280;36700;50.488;2.544;2023-05-22T03:17:04;101291.97;;;16.96;58.25
50732;BME280;36700;50.488;2.544;2023-05-22T03:19:30;101298.22;;;16.97;58.39
50732;BME280;36700;50.488;2.544;2023-05-22T03:21:56;101287.56;;;16.95;58.44
50732;BME280;36700;50.488;2.544;2023-05-22T03:24:22;101290.28;;;16.95;58.53
50732;BME280;36700;50.488;2.544;2023-05-22T03:26:48;101284.84;;;16.95;58.21
50732;BME280;36700;50.488;2.544;2023-05-22T03:29:14;101285.91;;;16.94;58.40
50732;BME280;36700;50.488;2.544;2023-05-22T03:31:40;101285.09;;;16.94;58.36
50732;BME280;36700;50.488;2.544;2023-05-22T03:34:05;101286.13;;;16.93;58.50
50732;BME280;36700;50.488;2.544;2023-05-22T03:36:31;101280.72;;;16.93;58.46
50732;BME280;36700;50.488;2.544;2023-05-22T03:39:01;101273.88;;;16.90;58.55
50732;BME280;36700;50.488;2.544;2023-05-22T03:41:27;101275.53;;;16.91;58.46
50732;BME280;36700;50.488;2.544;2023-05-22T03:43:53;101282.84;;;16.91;58.28
50732;BME280;36700;50.488;2.544;2023-05-22T03:46:19;101281.19;;;16.90;58.56
50732;BME280;36700;50.488;2.544;2023-05-22T03:48:45;101286.84;;;16.88;58.69
50732;BME280;36700;50.488;2.544;2023-05-22T03:51:11;101278.69;;;16.88;58.60
50732;BME280;36700;50.488;2.544;2023-05-22T03:53:37;101278.69;;;16.88;58.42
50732;BME280;36700;50.488;2.544;2023-05-22T03:56:03;101273.25;;;16.88;58.72
50732;BME280;36700;50.488;2.544;2023-05-22T03:58:29;101260.75;;;16.87;58.70
50732;BME280;36700;50.488;2.544;2023-05-22T04:00:55;101271.81;;;16.86;58.53
50732;BME280;36700;50.488;2.544;2023-05-22T04:03:28;101269.94;;;16.86;58.59
50732;BME280;36700;50.488;2.544;2023-05-22T04:05:54;101276.44;;;16.85;58.21
50732;BME280;36700;50.488;2.544;2023-05-22T04:08:21;101269.38;;;16.84;58.33
50732;BME280;36700;50.488;2.544;2023-05-22T04:10:47;101276.66;;;16.83;58.58
50732;BME280;36700;50.488;2.544;2023-05-22T04:13:14;101277.50;;;16.84;58.77
50732;BME280;36700;50.488;2.544;2023-05-22T04:15:41;101274.41;;;16.80;58.70
50732;BME280;36700;50.488;2.544;2023-05-22T04:18:10;101277.94;;;16.81;58.30
50732;BME280;36700;50.488;2.544;2023-05-22T04:20:37;101284.22;;;16.81;58.68
50732;BME280;36700;50.488;2.544;2023-05-22T04:23:03;101280.66;;;16.81;58.51
50732;BME280;36700;50.488;2.544;2023-05-22T04:25:29;101281.16;;;16.78;58.39
50732;BME280;36700;50.488;2.544;2023-05-22T04:27:56;101284.44;;;16.80;58.70
50732;BME280;36700;50.488;2.544;2023-05-22T04:30:24;101286.31;;;16.79;58.81
50732;BME280;36700;50.488;2.544;2023-05-22T04:32:50;101291.75;;;16.79;59.02
50732;BME280;36700;50.488;2.544;2023-05-22T04:35:16;101290.94;;;16.79;58.89
50732;BME280;36700;50.488;2.544;2023-05-22T04:37:43;101298.25;;;16.78;58.60
50732;BME280;36700;50.488;2.544;2023-05-22T04:40:10;101294.72;;;16.78;58.72
50732;BME280;36700;50.488;2.544;2023-05-22T04:42:37;101290.31;;;16.77;58.75
50732;BME280;36700;50.488;2.544;2023-05-22T04:45:04;101295.75;;;16.77;58.48
50732;BME280;36700;50.488;2.544;2023-05-22T04:47:30;101292.22;;;16.76;58.71
50732;BME280;36700;50.488;2.544;2023-05-22T04:49:57;101304.97;;;16.76;58.73
50732;BME280;36700;50.488;2.544;2023-05-22T04:52:25;101291.38;;;16.76;58.71
50732;BME280;36700;50.488;2.544;2023-05-22T04:54:51;101292.44;;;16.75;58.79
50732;BME280;36700;50.488;2.544;2023-05-22T04:57:20;101306.03;;;16.75;58.65
50732;BME280;36700;50.488;2.544;2023-05-22T04:59:46;101304.38;;;16.74;58.75
50732;BME280;36700;50.488;2.544;2023-05-22T05:02:13;101306.25;;;16.73;58.66
50732;BME280;36700;50.488;2.544;2023-05-22T05:04:39;101312.53;;;16.74;58.85
50732;BME280;36700;50.488;2.544;2023-05-22T05:07:05;101307.31;;;16.72;58.76
50732;BME280;36700;50.488;2.544;2023-05-22T05:09:32;101307.31;;;16.72;58.96
50732;BME280;36700;50.488;2.544;2023-05-22T05:11:58;101311.09;;;16.71;58.62
50732;BME280;36700;50.488;2.544;2023-05-22T05:14:24;101315.47;;;16.72;58.89
50732;BME280;36700;50.488;2.544;2023-05-22T05:16:50;101308.38;;;16.71;58.87
50732;BME280;36700;50.488;2.544;2023-05-22T05:19:17;101313.81;;;16.71;59.02
50732;BME280;36700;50.488;2.544;2023-05-22T05:21:47;101316.53;;;16.71;59.01
50732;BME280;36700;50.488;2.544;2023-05-22T05:24:17;101313.22;;;16.69;59.11
50732;BME280;36700;50.488;2.544;2023-05-22T05:26:43;101320.53;;;16.68;59.10
50732;BME280;36700;50.488;2.544;2023-05-22T05:29:10;101313.66;;;16.66;58.80
50732;BME280;36700;50.488;2.544;2023-05-22T05:31:37;101322.16;;;16.69;58.96
50732;BME280;36700;50.488;2.544;2023-05-22T05:34:03;101317.81;;;16.68;58.93
50732;BME280;36700;50.488;2.544;2023-05-22T05:36:29;101329.72;;;16.67;58.87
50732;BME280;36700;50.488;2.544;2023-05-22T05:38:56;101319.94;;;16.66;58.93
50732;BME280;36700;50.488;2.544;2023-05-22T05:41:23;101327.00;;;16.67;58.83
50732;BME280;36700;50.488;2.544;2023-05-22T05:43:49;101329.94;;;16.66;58.88
50732;BME280;36700;50.488;2.544;2023-05-22T05:46:17;101328.97;;;16.60;59.19
50732;BME280;36700;50.488;2.544;2023-05-22T05:48:43;101328.59;;;16.57;59.36
50732;BME280;36700;50.488;2.544;2023-05-22T05:51:09;101334.03;;;16.57;58.98
50732;BME280;36700;50.488;2.544;2023-05-22T05:53:35;101327.75;;;16.56;59.53
50732;BME280;36700;50.488;2.544;2023-05-22T05:56:02;101326.13;;;16.55;59.37
50732;BME280;36700;50.488;2.544;2023-05-22T05:58:28;101330.69;;;16.54;58.71
50732;BME280;36700;50.488;2.544;2023-05-22T06:00:54;101328.19;;;16.53;59.45
50732;BME280;36700;50.488;2.544;2023-05-22T06:03:20;101333.63;;;16.53;59.47
50732;BME280;36700;50.488;2.544;2023-05-22T06:05:46;101330.91;;;16.53;59.63
50732;BME280;36700;50.488;2.544;2023-05-22T06:08:13;101342.84;;;16.52;59.28
50732;BME280;36700;50.488;2.544;2023-05-22T06:10:40;101333.63;;;16.53;59.45
50732;BME280;36700;50.488;2.544;2023-05-22T06:13:06;101327.38;;;16.52;59.43
50732;BME280;36700;50.488;2.544;2023-05-22T06:15:32;101331.97;;;16.52;59.69
50732;BME280;36700;50.488;2.544;2023-05-22T06:17:58;101334.69;;;16.52;59.50
50732;BME280;36700;50.488;2.544;2023-05-22T06:20:23;101333.03;;;16.51;59.39
50732;BME280;36700;50.488;2.544;2023-05-22T06:22:50;101334.09;;;16.50;59.55
50732;BME280;36700;50.488;2.544;2023-05-22T06:25:16;101333.03;;;16.51;59.51
50732;BME280;36700;50.488;2.544;2023-05-22T06:27:42;101334.09;;;16.50;59.90
50732;BME280;36700;50.488;2.544;2023-05-22T06:30:08;101341.41;;;16.49;59.53
50732;BME280;36700;50.488;2.544;2023-05-22T06:32:34;101341.41;;;16.49;59.62
50732;BME280;36700;50.488;2.544;2023-05-22T06:35:01;101332.66;;;16.47;59.54
50732;BME280;36700;50.488;2.544;2023-05-22T06:37:27;101343.31;;;16.49;59.29
50732;BME280;36700;50.488;2.544;2023-05-22T06:39:53;101343.31;;;16.49;59.64
50732;BME280;36700;50.488;2.544;2023-05-22T06:42:19;101338.09;;;16.47;59.77
50732;BME280;36700;50.488;2.544;2023-05-22T06:44:45;101344.38;;;16.48;59.60
50732;BME280;36700;50.488;2.544;2023-05-22T06:47:11;101343.53;;;16.47;59.56
50732;BME280;36700;50.488;2.544;2023-05-22T06:49:37;101345.41;;;16.47;59.55
50732;BME280;36700;50.488;2.544;2023-05-22T06:52:03;101348.09;;;16.47;59.64
50732;BME280;36700;50.488;2.544;2023-05-22T06:54:29;101356.25;;;16.47;59.76
50732;BME280;36700;50.488;2.544;2023-05-22T06:56:55;101353.53;;;16.47;59.73
50732;BME280;36700;50.488;2.544;2023-05-22T06:59:22;101359.66;;;16.42;59.83
50732;BME280;36700;50.488;2.544;2023-05-22T07:01:48;101354.59;;;16.46;59.74
50732;BME280;36700;50.488;2.544;2023-05-22T07:04:13;101351.88;;;16.46;59.53
50732;BME280;36700;50.488;2.544;2023-05-22T07:06:39;101364.66;;;16.45;59.84
50732;BME280;36700;50.488;2.544;2023-05-22T07:09:07;101357.53;;;16.44;59.65
50732;BME280;36700;50.488;2.544;2023-05-22T07:11:33;101374.66;;;16.45;59.76
50732;BME280;36700;50.488;2.544;2023-05-22T07:14:03;101367.56;;;16.44;59.81
50732;BME280;36700;50.488;2.544;2023-05-22T07:16:29;101361.31;;;16.43;60.00
50732;BME280;36700;50.488;2.544;2023-05-22T07:18:56;101364.88;;;16.44;60.00
50732;BME280;36700;50.488;2.544;2023-05-22T07:21:22;101368.63;;;16.42;59.74
50732;BME280;36700;50.488;2.544;2023-05-22T07:23:51;101363.22;;;16.42;59.77
50732;BME280;36700;50.488;2.544;2023-05-22T07:26:17;101366.72;;;16.43;59.79
50732;BME280;36700;50.488;2.544;2023-05-22T07:28:43;101369.44;;;16.43;59.60
50732;BME280;36700;50.488;2.544;2023-05-22T07:31:09;101372.16;;;16.43;59.58
50732;BME280;36700;50.488;2.544;2023-05-22T07:33:35;101377.84;;;16.41;60.07
50732;BME280;36700;50.488;2.544;2023-05-22T07:36:01;101375.94;;;16.42;60.14
50732;BME280;36700;50.488;2.544;2023-05-22T07:38:27;101373.44;;;16.40;60.20
50732;BME280;36700;50.488;2.544;2023-05-22T07:40:53;101375.34;;;16.40;60.04
50732;BME280;36700;50.488;2.544;2023-05-22T07:43:19;101379.72;;;16.41;59.61
50732;BME280;36700;50.488;2.544;2023-05-22T07:45:46;101381.59;;;16.40;60.43
50732;BME280;36700;50.488;2.544;2023-05-22T07:48:11;101385.97;;;16.41;59.94
50732;BME280;36700;50.488;2.544;2023-05-22T07:50:37;101385.97;;;16.41;60.19
50732;BME280;36700;50.488;2.544;2023-05-22T07:53:04;101392.44;;;16.40;60.24
50732;BME280;36700;50.488;2.544;2023-05-22T07:55:30;101397.06;;;16.40;60.10
50732;BME280;36700;50.488;2.544;2023-05-22T07:57:56;101387.47;;;16.37;60.12
50732;BME280;36700;50.488;2.544;2023-05-22T08:00:22;101406.00;;;16.40;60.11
50732;BME280;36700;50.488;2.544;2023-05-22T08:02:49;101395.41;;;16.39;60.49
50732;BME280;36700;50.488;2.544;2023-05-22T08:05:15;101404.56;;;16.38;60.12
50732;BME280;36700;50.488;2.544;2023-05-22T08:07:41;101395.63;;;16.37;59.80
50732;BME280;36700;50.488;2.544;2023-05-22T08:10:13;101404.34;;;16.39;60.14
50732;BME280;36700;50.488;2.544;2023-05-22T08:12:39;101404.34;;;16.39;59.98
50732;BME280;36700;50.488;2.544;2023-05-22T08:15:05;101408.97;;;16.39;59.95
50732;BME280;36700;50.488;2.544;2023-05-22T08:17:31;101408.13;;;16.38;59.99
50732;BME280;36700;50.488;2.544;2023-05-22T08:19:58;101403.75;;;16.37;60.20
50732;BME280;36700;50.488;2.544;2023-05-22T08:22:24;101403.53;;;16.39;60.24
50732;BME280;36700;50.488;2.544;2023-05-22T08:24:50;101410.84;;;16.38;60.19
50732;BME280;36700;50.488;2.544;2023-05-22T08:27:15;101410.84;;;16.38;60.25
50732;BME280;36700;50.488;2.544;2023-05-22T08:29:42;101419.00;;;16.38;60.31
50732;BME280;36700;50.488;2.544;2023-05-22T08:32:08;101421.69;;;16.38;60.12
50732;BME280;36700;50.488;2.544;2023-05-22T08:34:34;101419.00;;;16.38;60.19
50732;BME280;36700;50.488;2.544;2023-05-22T08:37:00;101409.19;;;16.37;59.90
50732;BME280;36700;50.488;2.544;2023-05-22T08:39:26;101414.41;;;16.39;60.07
50732;BME280;36700;50.488;2.544;2023-05-22T08:41:53;101405.88;;;16.35;60.05
50732;BME280;36700;50.488;2.544;2023-05-22T08:44:19;101404.56;;;16.38;60.35
50732;BME280;36700;50.488;2.544;2023-05-22T08:46:45;101399.59;;;16.35;60.46
50732;BME280;36700;50.488;2.544;2023-05-22T08:49:12;101402.09;;;16.36;60.43
50732;BME280;36700;50.488;2.544;2023-05-22T08:51:39;101401.84;;;16.38;60.04
50732;BME280;36700;50.488;2.544;2023-05-22T08:54:08;101407.28;;;16.38;60.19
50732;BME280;36700;50.488;2.544;2023-05-22T08:56:35;101411.91;;;16.37;60.56
50732;BME280;36700;50.488;2.544;2023-05-22T08:59:01;101411.91;;;16.37;60.29
50732;BME280;36700;50.488;2.544;2023-05-22T09:01:30;101411.91;;;16.37;60.14
50732;BME280;36700;50.488;2.544;2023-05-22T09:04:01;101405.41;;;16.38;60.44
50732;BME280;36700;50.488;2.544;2023-05-22T09:06:30;101407.28;;;16.38;60.11
50732;BME280;36700;50.488;2.544;2023-05-22T09:08:58;101408.13;;;16.38;60.28
50732;BME280;36700;50.488;2.544;2023-05-22T09:11:24;101403.53;;;16.39;59.91
50732;BME280;36700;50.488;2.544;2023-05-22T09:13:50;101405.19;;;16.40;60.12
50732;BME280;36700;50.488;2.544;2023-05-22T09:16:17;101397.88;;;16.40;60.07
50732;BME280;36700;50.488;2.544;2023-05-22T09:18:43;101394.34;;;16.40;60.02
50732;BME280;36700;50.488;2.544;2023-05-22T09:21:12;101402.03;;;16.43;60.03
50732;BME280;36700;50.488;2.544;2023-05-22T09:23:39;101406.63;;;16.42;60.13
50732;BME280;36700;50.488;2.544;2023-05-22T09:26:05;101412.66;;;16.45;60.39
50732;BME280;36700;50.488;2.544;2023-05-22T09:28:33;101407.44;;;16.43;60.29
50732;BME280;36700;50.488;2.544;2023-05-22T09:31:00;101414.53;;;16.44;60.20
50732;BME280;36700;50.488;2.544;2023-05-22T09:33:28;101411.22;;;16.42;60.25
50732;BME280;36700;50.488;2.544;2023-05-22T09:35:54;101413.50;;;16.45;60.37
50732;BME280;36700;50.488;2.544;2023-05-22T09:38:21;101408.06;;;16.45;60.26
50732;BME280;36700;50.488;2.544;2023-05-22T09:40:52;101411.59;;;16.46;59.87
50732;BME280;36700;50.488;2.544;2023-05-22T09:43:20;101402.66;;;16.45;60.12
50732;BME280;36700;50.488;2.544;2023-05-22T09:45:47;101407.84;;;16.47;60.28
50732;BME280;36700;50.488;2.544;2023-05-22T09:48:15;101406.19;;;16.46;60.58
50732;BME280;36700;50.488;2.544;2023-05-22T09:50:48;101402.41;;;16.47;60.61
50732;BME280;36700;50.488;2.544;2023-05-22T09:53:15;101407.84;;;16.47;60.54
50732;BME280;36700;50.488;2.544;2023-05-22T09:55:45;101413.25;;;16.47;60.23
50732;BME280;36700;50.488;2.544;2023-05-22T09:58:13;101404.31;;;16.46;60.33
50732;BME280;36700;50.488;2.544;2023-05-22T10:00:43;101414.31;;;16.46;60.38
50732;BME280;36700;50.488;2.544;2023-05-22T10:03:10;101407.84;;;16.47;60.23
50732;BME280;36700;50.488;2.544;2023-05-22T10:05:46;101411.38;;;16.47;60.32
50732;BME280;36700;50.488;2.544;2023-05-22T10:08:14;101409.53;;;16.48;60.59
50732;BME280;36700;50.488;2.544;2023-05-22T10:10:45;101405.75;;;16.49;60.44
50732;BME280;36700;50.488;2.544;2023-05-22T10:13:12;101411.38;;;16.47;60.47
50732;BME280;36700;50.488;2.544;2023-05-22T10:15:39;101402.66;;;16.45;60.43
50732;BME280;36700;50.488;2.544;2023-05-22T10:18:05;101405.97;;;16.47;60.56
50732;BME280;36700;50.488;2.544;2023-05-22T10:20:32;101404.53;;;16.45;60.83
50732;BME280;36700;50.488;2.544;2023-05-22T10:22:58;101407.63;;;16.48;60.79
50732;BME280;36700;50.488;2.544;2023-05-22T10:25:27;101411.38;;;16.47;60.69
50732;BME280;36700;50.488;2.544;2023-05-22T10:27:53;101405.75;;;16.49;60.76
50732;BME280;36700;50.488;2.544;2023-05-22T10:30:40;101399.69;;;16.47;60.88
50732;BME280;36700;50.488;2.544;2023-05-22T10:33:20;101416.59;;;16.49;60.75
50732;BME280;36700;50.488;2.544;2023-05-22T10:35:51;101419.53;;;16.47;60.87
50732;BME280;36700;50.488;2.544;2023-05-22T10:40:52;101405.13;;;16.47;60.95
50732;BME280;36700;50.488;2.544;2023-05-22T10:43:20;101410.13;;;16.50;60.92
50732;BME280;36700;50.488;2.544;2023-05-22T10:45:46;101412.22;;;16.48;61.12
50732;BME280;36700;50.488;2.544;2023-05-22T10:48:13;101415.53;;;16.50;60.99
50732;BME280;36700;50.488;2.544;2023-05-22T10:50:51;101420.13;;;16.49;60.96
50732;BME280;36700;50.488;2.544;2023-05-22T10:55:47;101416.59;;;16.49;61.31
50732;BME280;36700;50.488;2.544;2023-05-22T10:58:17;101423.09;;;16.48;61.19
50732;BME280;36700;50.488;2.544;2023-05-22T11:03:57;101417.41;;;16.49;61.06
50732;BME280;36700;50.488;2.544;2023-05-22T11:09:32;101414.69;;;16.49;61.38
50732;BME280;36700;50.488;2.544;2023-05-22T11:15:01;101416.38;;;16.50;61.20
50732;BME280;36700;50.488;2.544;2023-05-22T11:20:11;101409.06;;;16.51;61.07
50732;BME280;36700;50.488;2.544;2023-05-22T11:22:42;101409.06;;;16.51;61.23
50732;BME280;36700;50.488;2.544;2023-05-22T11:25:18;101406.56;;;16.49;61.04
50732;BME280;36700;50.488;2.544;2023-05-22T11:27:46;101406.34;;;16.51;61.92
50732;BME280;36700;50.488;2.544;2023-05-22T11:30:13;101407.19;;;16.51;61.68
50732;BME280;36700;50.488;2.544;2023-05-22T11:32:41;101421.56;;;16.52;61.65
50732;BME280;36700;50.488;2.544;2023-05-22T11:35:21;101415.09;;;16.53;61.31
50732;BME280;36700;50.488;2.544;2023-05-22T11:37:48;101405.06;;;16.53;61.52
50732;BME280;36700;50.488;2.544;2023-05-22T11:40:17;101412.38;;;16.53;61.41
50732;BME280;36700;50.488;2.544;2023-05-22T11:42:43;101420.50;;;16.53;61.31
50732;BME280;36700;50.488;2.544;2023-05-22T11:45:10;101416.38;;;16.50;61.45
50732;BME280;36700;50.488;2.544;2023-05-22T11:47:36;101420.75;;;16.51;61.36
50732;BME280;36700;50.488;2.544;2023-05-22T11:50:03;101425.94;;;16.53;61.41
50732;BME280;36700;50.488;2.544;2023-05-22T11:52:32;101432.44;;;16.52;61.36
50732;BME280;36700;50.488;2.544;2023-05-22T11:54:58;101436.00;;;16.52;61.31
50732;BME280;36700;50.488;2.544;2023-05-22T11:57:25;101439.75;;;16.51;61.74
50732;BME280;36700;50.488;2.544;2023-05-22T11:59:51;101438.09;;;16.50;61.58
50732;BME280;36700;50.488;2.544;2023-05-22T12:02:18;101441.63;;;16.51;61.49
50732;BME280;36700;50.488;2.544;2023-05-22T12:04:45;101446.25;;;16.50;61.76
50732;BME280;36700;50.488;2.544;2023-05-22T12:07:11;101446.47;;;16.49;61.59
50732;BME280;36700;50.488;2.544;2023-05-22T12:09:38;101457.09;;;16.50;61.49
50732;BME280;36700;50.488;2.544;2023-05-22T12:12:04;101451.69;;;16.50;61.33
50732;BME280;36700;50.488;2.544;2023-05-22T12:14:30;101462.53;;;16.50;61.56
50732;BME280;36700;50.488;2.544;2023-05-22T12:16:57;101458.13;;;16.49;61.25
50732;BME280;36700;50.488;2.544;2023-05-22T12:19:24;101460.84;;;16.49;61.45
50732;BME280;36700;50.488;2.544;2023-05-22T12:21:51;101453.78;;;16.48;61.44
50732;BME280;36700;50.488;2.544;2023-05-22T12:24:17;101457.53;;;16.47;61.55
50732;BME280;36700;50.488;2.544;2023-05-22T12:26:50;101458.13;;;16.49;61.79
50732;BME280;36700;50.488;2.544;2023-05-22T12:29:17;101447.75;;;16.46;61.67
50732;BME280;36700;50.488;2.544;2023-05-22T12:31:43;101458.38;;;16.48;61.59
50732;BME280;36700;50.488;2.544;2023-05-22T12:34:11;101454.81;;;16.47;61.35
50732;BME280;36700;50.488;2.544;2023-05-22T12:36:38;101456.47;;;16.48;61.51
50732;BME280;36700;50.488;2.544;2023-05-22T12:39:09;101453.97;;;16.47;61.33
50732;BME280;36700;50.488;2.544;2023-05-22T12:41:36;101464.84;;;16.47;61.52
50732;BME280;36700;50.488;2.544;2023-05-22T12:44:02;101458.59;;;16.46;61.63
50732;BME280;36700;50.488;2.544;2023-05-22T12:46:30;101459.41;;;16.47;61.48
50732;BME280;36700;50.488;2.544;2023-05-22T12:48:57;101463.81;;;16.48;61.48
50732;BME280;36700;50.488;2.544;2023-05-22T12:51:25;101459.19;;;16.48;61.68
50732;BME280;36700;50.488;2.544;2023-05-22T12:53:51;101452.72;;;16.49;61.57
50732;BME280;36700;50.488;2.544;2023-05-22T12:56:17;101436.53;;;16.36;61.61
50732;BME280;36700;50.488;2.544;2023-05-22T12:58:43;101462.75;;;16.49;61.41
50732;BME280;36700;50.488;2.544;2023-05-22T13:01:09;101463.56;;;16.49;61.45
50732;BME280;36700;50.488;2.544;2023-05-22T13:03:35;101450.25;;;16.48;61.50
50732;BME280;36700;50.488;2.544;2023-05-22T13:06:01;101457.31;;;16.49;61.24
50732;BME280;36700;50.488;2.544;2023-05-22T13:08:27;101468.41;;;16.47;61.26
50732;BME280;36700;50.488;2.544;2023-05-22T13:10:53;101454.81;;;16.47;61.64
50732;BME280;36700;50.488;2.544;2023-05-22T13:13:19;101449.41;;;16.47;61.61
50732;BME280;36700;50.488;2.544;2023-05-22T13:15:45;101451.91;;;16.49;61.64
50732;BME280;36700;50.488;2.544;2023-05-22T13:18:10;101453.97;;;16.47;61.43
50732;BME280;36700;50.488;2.544;2023-05-22T13:20:37;101449.19;;;16.49;61.33